Time;durP1;ratioP1;P1;durP2;ratioP2;P2;SDS_P1;SDS_P2;PMS_P1;PMS_P2;Temp;Humidity;BMP_temperature;BMP_pressure;BME280_temperature;BME280_humidity;BME280_pressure;Samples;Min_cycle;Max_cycle;Signal;HPM_P1;HPM_P2
2021/12/11 00:02:15;;;;;;;31.85;19.92;;;-1.70;99.90;;;;;;4899753;29;20481;-65
2021/12/11 00:04:44;;;;;;;31.15;19.92;;;-1.70;99.90;;;;;;4920217;29;20051;-66
2021/12/11 00:07:13;;;;;;;28.35;19.17;;;-1.70;99.90;;;;;;4922173;29;20463;-67
2021/12/11 00:09:44;;;;;;;31.58;20.58;;;-1.70;99.90;;;;;;4887045;29;20060;-66
2021/12/11 00:12:18;;;;;;;30.80;19.92;;;-1.80;99.90;;;;;;4902106;29;20485;-67
2021/12/11 00:14:53;;;;;;;29.88;17.98;;;-1.80;99.90;;;;;;4887240;29;20071;-66
2021/12/11 00:17:23;;;;;;;26.88;17.73;;;-1.80;99.90;;;;;;4903556;29;20112;-66
2021/12/11 00:19:49;;;;;;;30.40;18.15;;;-1.80;99.90;;;;;;4887429;29;20048;-67
2021/12/11 00:22:24;;;;;;;26.25;14.43;;;-1.80;99.90;;;;;;4894293;29;20151;-66
2021/12/11 00:24:51;;;;;;;24.40;14.98;;;-1.80;99.90;;;;;;4905630;29;20131;-65
2021/12/11 00:27:21;;;;;;;27.48;16.73;;;-1.80;99.90;;;;;;4922284;29;20058;-65
2021/12/11 00:29:48;;;;;;;29.90;18.38;;;-1.80;99.90;;;;;;4921794;29;20132;-66
2021/12/11 00:32:26;;;;;;;26.50;17.33;;;-1.80;99.90;;;;;;4905747;29;20052;-65
2021/12/11 00:34:56;;;;;;;29.65;17.40;;;-1.80;99.90;;;;;;4886870;29;20052;-66
2021/12/11 00:37:23;;;;;;;27.30;16.63;;;-1.80;99.90;;;;;;4920093;29;20060;-66
2021/12/11 00:39:53;;;;;;;26.33;17.13;;;-1.60;99.90;;;;;;4905869;29;20064;-66
2021/12/11 00:42:22;;;;;;;25.15;15.00;;;-1.90;99.90;;;;;;4919071;29;20056;-66
2021/12/11 00:44:52;;;;;;;27.73;16.55;;;-1.80;99.90;;;;;;4903611;29;20049;-66
2021/12/11 00:47:25;;;;;;;25.83;15.57;;;-1.80;99.90;;;;;;4903582;29;20052;-65
2021/12/11 00:50:00;;;;;;;27.83;17.80;;;-1.80;99.90;;;;;;4886792;29;20084;-65
2021/12/11 00:52:39;;;;;;;25.90;16.27;;;-1.90;99.90;;;;;;4905405;29;20060;-67
2021/12/11 00:55:19;;;;;;;23.13;13.98;;;-1.90;99.90;;;;;;4883287;29;20057;-66
2021/12/11 00:57:45;;;;;;;24.42;15.48;;;-1.90;99.90;;;;;;4914000;29;20485;-66
2021/12/11 01:00:21;;;;;;;24.98;16.17;;;-1.90;99.90;;;;;;4905443;29;20158;-67
2021/12/11 01:02:52;;;;;;;23.48;14.65;;;-1.90;99.90;;;;;;4905385;29;20497;-66
2021/12/11 01:05:20;;;;;;;24.63;15.18;;;-1.90;99.90;;;;;;4922666;29;20086;-65
2021/12/11 01:07:45;;;;;;;20.98;12.20;;;-2.00;99.90;;;;;;4915064;29;20135;-67
2021/12/11 01:10:24;;;;;;;21.55;11.77;;;-2.00;99.90;;;;;;4886407;29;20080;-65
2021/12/11 01:12:58;;;;;;;19.10;12.20;;;-1.90;99.90;;;;;;4919752;29;20048;-66
2021/12/11 01:15:34;;;;;;;20.58;12.40;;;-2.00;99.90;;;;;;4921839;29;20131;-66
2021/12/11 01:21:05;;;;;;;18.52;11.15;;;-2.00;99.90;;;;;;4919382;29;20088;-67
2021/12/11 01:26:07;;;;;;;19.38;11.93;;;-2.10;99.90;;;;;;4898463;29;20052;-66
2021/12/11 01:28:35;;;;;;;21.58;12.30;;;-2.10;99.90;;;;;;4883977;29;20406;-66
2021/12/11 01:31:05;;;;;;;19.33;11.70;;;-2.10;99.90;;;;;;4898767;29;20181;-65
2021/12/11 01:33:31;;;;;;;19.27;12.63;;;-2.10;99.90;;;;;;4914746;29;20080;-65
2021/12/11 01:35:57;;;;;;;20.80;13.00;;;-2.10;99.90;;;;;;4902089;29;20051;-67
2021/12/11 01:38:29;;;;;;;20.20;12.38;;;-2.10;99.90;;;;;;4897271;29;20044;-66
2021/12/11 01:40:57;;;;;;;;;;;-2.10;99.90;;;;;;4902030;29;20056;-68
2021/12/11 01:43:25;;;;;;;18.85;12.07;;;-2.10;99.90;;;;;;4901987;29;20315;-66
2021/12/11 01:45:52;;;;;;;21.05;12.52;;;-2.20;99.90;;;;;;4917394;29;20500;-66
2021/12/11 01:48:21;;;;;;;23.63;12.65;;;-2.10;99.90;;;;;;4909668;29;20049;-66
2021/12/11 01:50:53;;;;;;;19.65;12.63;;;-2.10;99.90;;;;;;4898740;29;20139;-66
2021/12/11 01:53:32;;;;;;;21.67;13.20;;;-2.10;99.90;;;;;;4888267;29;20067;-67
2021/12/11 01:56:14;;;;;;;24.25;12.98;;;-2.10;99.90;;;;;;4918079;29;20063;-66
2021/12/11 01:58:57;;;;;;;23.55;13.57;;;-2.10;99.90;;;;;;4918685;29;20075;-67
2021/12/11 02:01:32;;;;;;;23.00;13.60;;;-2.10;99.90;;;;;;4917067;29;20048;-67
2021/12/11 02:03:59;;;;;;;25.05;14.10;;;-2.10;99.90;;;;;;4886997;29;20060;-65
2021/12/11 02:06:31;;;;;;;18.15;11.50;;;-2.20;99.90;;;;;;4882972;29;20068;-66
2021/12/11 02:08:57;;;;;;;24.23;13.53;;;-2.20;99.90;;;;;;4899731;29;20494;-66
2021/12/11 02:11:27;;;;;;;22.25;11.50;;;-2.20;99.90;;;;;;4918059;29;20371;-66
2021/12/11 02:14:03;;;;;;;16.95;11.43;;;-2.20;99.90;;;;;;4913074;29;20135;-65
2021/12/11 02:16:34;;;;;;;19.85;11.93;;;-2.30;99.90;;;;;;4901408;29;20095;-66
2021/12/11 02:19:06;;;;;;;20.42;12.52;;;-2.20;99.90;;;;;;4916721;29;20052;-65
2021/12/11 02:21:36;;;;;;;;;;;-2.30;99.90;;;;;;4918726;29;20107;-67
2021/12/11 02:24:14;;;;;;;18.77;12.27;;;-2.30;99.90;;;;;;4918524;29;19979;-66
2021/12/11 02:26:42;;;;;;;24.30;13.02;;;-2.40;99.90;;;;;;4900680;29;20396;-69
2021/12/11 02:29:13;;;;;;;19.40;12.93;;;-2.40;99.90;;;;;;4896695;29;20095;-66
2021/12/11 02:31:56;;;;;;;23.75;13.25;;;-2.40;99.90;;;;;;4918067;29;20084;-66
2021/12/11 02:34:25;;;;;;;21.92;12.77;;;-2.40;99.90;;;;;;4880323;29;20534;-66
2021/12/11 02:36:56;;;;;;;22.48;11.93;;;-2.40;99.90;;;;;;4863694;29;20088;-67
2021/12/11 02:39:37;;;;;;;21.55;12.32;;;-2.40;99.90;;;;;;4898892;29;20127;-66
2021/12/11 02:42:22;;;;;;;21.83;13.40;;;-2.40;99.90;;;;;;4904690;29;20060;-65
2021/12/11 02:44:59;;;;;;;19.48;12.75;;;-2.40;99.90;;;;;;4901292;29;20123;-66
2021/12/11 02:47:51;;;;;;;21.67;13.07;;;-2.50;99.90;;;;;;4917741;29;20059;-67
2021/12/11 02:50:26;;;;;;;20.60;12.05;;;-2.50;99.90;;;;;;4917901;29;20067;-66
2021/12/11 02:53:05;;;;;;;23.65;13.20;;;-2.50;99.90;;;;;;4895417;29;20068;-66
2021/12/11 02:55:40;;;;;;;21.55;12.75;;;-2.50;99.90;;;;;;4897253;29;20056;-65
2021/12/11 02:58:14;;;;;;;19.55;12.05;;;-2.50;99.90;;;;;;4899391;29;20067;-66
2021/12/11 03:00:45;;;;;;;19.98;12.52;;;-2.50;99.90;;;;;;4900423;29;20083;-67
2021/12/11 03:03:14;;;;;;;19.80;11.30;;;-2.50;99.90;;;;;;4900390;29;20048;-67
2021/12/11 03:05:58;;;;;;;19.88;11.57;;;-2.60;99.90;;;;;;4916314;29;20056;-65
2021/12/11 03:08:23;;;;;;;20.92;12.52;;;-2.60;99.90;;;;;;4888940;29;20140;-66
2021/12/11 03:10:56;;;;;;;20.67;11.75;;;-2.60;99.90;;;;;;4896589;29;20161;-67
2021/12/11 03:13:23;;;;;;;17.33;10.73;;;-2.60;99.90;;;;;;4897667;29;20060;-66
2021/12/11 03:15:49;;;;;;;15.15;9.60;;;-2.60;99.90;;;;;;4898366;29;20080;-67
2021/12/11 03:18:15;;;;;;;26.13;14.88;;;-2.60;99.90;;;;;;4882187;29;20378;-66
2021/12/11 03:20:44;;;;;;;31.65;18.83;;;-2.60;99.90;;;;;;4898376;29;20099;-66
2021/12/11 03:23:10;;;;;;;51.58;32.90;;;-2.70;99.90;;;;;;4881608;29;20048;-66
2021/12/11 03:25:38;;;;;;;40.45;26.75;;;-2.70;99.90;;;;;;4880701;29;20584;-65
2021/12/11 03:28:06;;;;;;;41.03;27.70;;;-2.80;99.90;;;;;;4892417;29;20422;-66
2021/12/11 03:30:36;;;;;;;46.25;29.83;;;-2.70;99.90;;;;;;4917737;29;20070;-65
2021/12/11 03:33:07;;;;;;;20.63;14.18;;;-2.60;99.90;;;;;;4916405;29;20492;-65
2021/12/11 03:35:33;;;;;;;20.10;11.95;;;-2.80;99.90;;;;;;4917161;29;20466;-66
2021/12/11 03:38:00;;;;;;;16.90;12.23;;;-2.70;99.90;;;;;;4900454;29;20056;-66
2021/12/11 03:40:27;;;;;;;16.40;11.60;;;-2.90;99.90;;;;;;4896816;29;20052;-67
2021/12/11 03:42:54;;;;;;;18.45;12.25;;;-2.70;99.90;;;;;;4881340;29;20056;-67
2021/12/11 03:45:29;;;;;;;18.33;11.02;;;-2.80;99.90;;;;;;4880999;29;20052;-66
2021/12/11 03:48:01;;;;;;;21.42;13.45;;;-2.70;99.90;;;;;;4899730;29;20139;-65
2021/12/11 03:50:29;;;;;;;18.60;11.63;;;-2.80;99.90;;;;;;4899344;29;20060;-66
2021/12/11 03:52:55;;;;;;;19.23;11.80;;;-2.70;99.90;;;;;;4895608;29;20115;-66
2021/12/11 03:55:29;;;;;;;17.35;11.48;;;-2.80;99.90;;;;;;4899984;29;20505;-67
2021/12/11 03:57:59;;;;;;;20.27;12.52;;;-2.70;99.90;;;;;;4881054;29;20474;-67
2021/12/11 04:00:31;;;;;;;16.25;11.25;;;-2.70;99.90;;;;;;4908773;29;20063;-66
2021/12/11 04:03:03;;;;;;;18.65;11.93;;;-2.90;99.90;;;;;;4914858;29;20493;-65
2021/12/11 04:05:30;;;;;;;18.48;12.00;;;-2.80;99.90;;;;;;4900451;29;20420;-67
2021/12/11 04:07:57;;;;;;;18.73;12.70;;;-2.80;99.90;;;;;;4913734;29;20052;-67
2021/12/11 04:10:23;;;;;;;17.48;12.55;;;-2.80;99.90;;;;;;4894501;29;20052;-67
2021/12/11 04:12:49;;;;;;;20.40;12.02;;;-2.80;99.90;;;;;;4899421;29;20063;-66
2021/12/11 04:15:16;;;;;;;19.73;12.70;;;-2.80;99.90;;;;;;4916609;29;20052;-65
2021/12/11 04:17:42;;;;;;;19.65;13.73;;;-2.80;99.90;;;;;;4916636;29;20060;-65
2021/12/11 04:20:12;;;;;;;25.48;15.27;;;-2.80;99.90;;;;;;4899183;29;20060;-64
2021/12/11 04:22:38;;;;;;;24.38;13.63;;;-2.70;99.90;;;;;;4915499;29;20122;-65
2021/12/11 04:25:06;;;;;;;24.17;14.75;;;-2.70;99.90;;;;;;4909840;29;20466;-65
2021/12/11 04:27:32;;;;;;;20.90;13.27;;;-2.60;99.90;;;;;;4898749;29;20051;-66
2021/12/11 04:29:58;;;;;;;20.27;13.43;;;-2.70;99.90;;;;;;4914892;29;20123;-65
2021/12/11 04:32:26;;;;;;;22.95;12.73;;;-2.60;99.90;;;;;;4916448;29;20048;-65
2021/12/11 04:34:52;;;;;;;22.65;13.00;;;-2.70;99.90;;;;;;4916819;29;20453;-66
2021/12/11 04:37:23;;;;;;;23.30;14.18;;;-2.70;99.90;;;;;;4895956;29;20053;-66
2021/12/11 04:39:56;;;;;;;23.42;13.30;;;-2.70;99.90;;;;;;4880867;29;20049;-66
2021/12/11 04:43:07;;;;;;;22.85;13.45;;;-2.80;99.90;;;;;;4907203;29;20052;-67
2021/12/11 04:45:34;;;;;;;19.67;11.73;;;-2.80;99.90;;;;;;4894016;29;20087;-67
2021/12/11 04:48:12;;;;;;;20.45;12.55;;;-2.70;99.90;;;;;;4915699;29;20508;-66
2021/12/11 04:50:54;;;;;;;25.08;14.77;;;-2.80;99.90;;;;;;4885105;29;20087;-67
2021/12/11 04:53:46;;;;;;;23.42;13.73;;;-2.70;99.90;;;;;;4894225;29;20052;-65
2021/12/11 05:04:43;;;;;;;22.10;13.40;;;-2.70;99.90;;;;;;4902472;29;20052;-66
2021/12/11 05:10:29;;;;;;;24.90;13.75;;;-2.80;99.90;;;;;;4863752;29;20572;-66
2021/12/11 05:12:57;;;;;;;25.23;14.23;;;-2.70;99.90;;;;;;4869455;29;20049;-66
2021/12/11 05:15:28;;;;;;;26.35;14.32;;;-2.80;99.90;;;;;;4890997;29;20061;-66
2021/12/11 05:17:57;;;;;;;22.15;13.38;;;-2.80;99.90;;;;;;4891556;29;20048;-65
2021/12/11 05:20:26;;;;;;;30.85;16.80;;;-2.50;99.90;;;;;;4865724;29;20061;-66
2021/12/11 05:22:52;;;;;;;29.05;16.63;;;-2.80;99.90;;;;;;4882036;29;20064;-66
2021/12/11 05:25:18;;;;;;;33.75;17.10;;;-2.60;99.90;;;;;;4886183;29;20351;-67
2021/12/11 05:27:46;;;;;;;29.60;16.08;;;-2.70;99.90;;;;;;4912469;29;20059;-68
2021/12/11 05:30:21;;;;;;;26.80;14.68;;;-2.60;99.90;;;;;;4900703;29;20104;-65
2021/12/11 05:32:47;;;;;;;26.30;16.27;;;-2.70;99.90;;;;;;4883649;29;20123;-66
2021/12/11 05:35:15;;;;;;;30.08;17.73;;;-2.70;99.90;;;;;;4883507;29;20116;-68
2021/12/11 05:37:41;;;;;;;33.33;18.80;;;-2.60;99.90;;;;;;4883271;29;20492;-66
2021/12/11 05:40:09;;;;;;;37.40;20.27;;;-2.60;99.90;;;;;;4891925;29;20052;-66
2021/12/11 05:42:34;;;;;;;40.45;20.73;;;-2.50;99.90;;;;;;4911305;29;20101;-66
2021/12/11 05:45:00;;;;;;;43.20;21.02;;;-2.50;99.90;;;;;;4899930;29;20061;-66
2021/12/11 05:47:26;;;;;;;43.75;21.88;;;-2.20;99.90;;;;;;4898540;29;20071;-66
2021/12/11 05:49:52;;;;;;;41.70;20.95;;;-2.30;99.90;;;;;;4899112;29;20123;-66
2021/12/11 05:52:18;;;;;;;39.25;21.55;;;-2.10;99.90;;;;;;4889367;29;20040;-66
2021/12/11 05:54:45;;;;;;;37.85;20.05;;;-2.10;99.90;;;;;;4874061;29;20071;-65
2021/12/11 05:57:14;;;;;;;33.00;19.67;;;-2.10;99.90;;;;;;4882724;29;20060;-65
2021/12/11 05:59:42;;;;;;;32.33;19.15;;;-2.10;99.90;;;;;;4899966;29;20112;-65
2021/12/11 06:02:24;;;;;;;30.98;17.67;;;-2.20;99.90;;;;;;4916917;29;20056;-66
2021/12/11 06:04:55;;;;;;;31.10;17.02;;;-2.20;99.90;;;;;;4891057;29;20092;-67
2021/12/11 06:07:25;;;;;;;29.60;17.53;;;-2.20;99.90;;;;;;4899609;29;20049;-67
2021/12/11 06:10:03;;;;;;;27.60;15.23;;;-2.30;99.90;;;;;;4899601;29;20312;-66
2021/12/11 06:12:29;;;;;;;28.98;16.30;;;-2.30;99.90;;;;;;4898084;29;20111;-65
2021/12/11 06:14:55;;;;;;;29.02;16.45;;;-2.40;99.90;;;;;;4882999;29;20409;-65
2021/12/11 06:17:25;;;;;;;26.30;16.30;;;-2.40;99.90;;;;;;4898325;29;20060;-66
2021/12/11 06:19:53;;;;;;;28.23;16.75;;;-2.50;99.90;;;;;;4914388;29;20056;-66
2021/12/11 06:22:21;;;;;;;26.60;16.45;;;-2.50;99.90;;;;;;4918452;29;20056;-65
2021/12/11 06:24:47;;;;;;;28.23;16.50;;;-2.50;99.90;;;;;;4901639;29;20401;-65
2021/12/11 06:27:13;;;;;;;30.77;16.25;;;-2.60;99.90;;;;;;4901328;29;20441;-66
2021/12/11 06:29:39;;;;;;;32.28;16.77;;;-2.60;99.90;;;;;;4891200;29;20056;-67
2021/12/11 06:32:05;;;;;;;25.77;16.58;;;-2.50;99.90;;;;;;4897612;29;20052;-66
2021/12/11 06:34:33;;;;;;;27.42;16.10;;;-2.60;99.90;;;;;;4899746;29;20060;-64
2021/12/11 06:36:59;;;;;;;26.88;15.38;;;-2.60;99.90;;;;;;4900962;29;20394;-66
2021/12/11 06:39:25;;;;;;;30.52;17.08;;;-2.60;99.90;;;;;;4901332;29;20111;-65
2021/12/11 06:41:55;;;;;;;28.63;16.75;;;-2.60;99.90;;;;;;4900227;29;20059;-66
2021/12/11 06:44:27;;;;;;;31.30;16.63;;;-2.60;99.90;;;;;;4894950;29;20052;-64
2021/12/11 06:46:54;;;;;;;25.58;14.30;;;-2.60;99.90;;;;;;4898970;29;20059;-65
2021/12/11 06:49:21;;;;;;;25.58;15.65;;;-2.60;99.90;;;;;;4882172;29;20049;-67
2021/12/11 06:51:47;;;;;;;28.80;16.10;;;-2.60;99.90;;;;;;4898730;29;20107;-66
2021/12/11 06:54:12;;;;;;;30.30;16.60;;;-2.60;99.90;;;;;;4881062;29;20123;-65
2021/12/11 06:56:39;;;;;;;27.50;15.80;;;-2.60;99.90;;;;;;4897977;29;20173;-66
2021/12/11 06:59:06;;;;;;;26.17;16.40;;;-2.70;99.90;;;;;;4881344;29;20059;-66
2021/12/11 07:01:32;;;;;;;31.58;16.75;;;-2.70;99.90;;;;;;4898146;29;20053;-65
2021/12/11 07:03:59;;;;;;;29.13;16.10;;;-2.70;99.90;;;;;;4884232;29;20048;-65
2021/12/11 07:06:25;;;;;;;24.67;15.35;;;-2.70;99.90;;;;;;4886097;29;20131;-66
2021/12/11 07:08:53;;;;;;;26.33;14.95;;;-2.70;99.90;;;;;;4909758;29;20508;-66
2021/12/11 07:11:19;;;;;;;28.63;15.20;;;-2.70;99.90;;;;;;4891723;29;20041;-66
2021/12/11 07:13:45;;;;;;;42.25;22.10;;;-2.70;99.90;;;;;;4899913;29;20088;-66
2021/12/11 07:16:11;;;;;;;39.40;22.17;;;-2.80;99.90;;;;;;4916744;29;20048;-65
2021/12/11 07:18:37;;;;;;;36.90;21.45;;;-2.80;99.90;;;;;;4917200;29;20048;-66
2021/12/11 07:21:05;;;;;;;36.55;21.00;;;-2.80;99.90;;;;;;4917080;29;20091;-65
2021/12/11 07:23:31;;;;;;;35.40;20.83;;;-2.80;99.90;;;;;;4915752;29;20445;-66
2021/12/11 07:26:13;;;;;;;28.48;18.45;;;-2.90;99.90;;;;;;4884922;29;20083;-66
2021/12/11 07:28:39;;;;;;;30.10;18.07;;;-2.90;99.90;;;;;;4884609;29;20052;-66
2021/12/11 07:31:05;;;;;;;29.08;16.52;;;-2.80;99.90;;;;;;4917000;29;20292;-67
2021/12/11 07:33:31;;;;;;;30.42;17.55;;;-2.90;99.90;;;;;;4894332;29;20500;-66
2021/12/11 07:35:56;;;;;;;38.13;20.52;;;-2.80;99.90;;;;;;4911661;29;20044;-65
2021/12/11 07:38:23;;;;;;;31.45;19.65;;;-2.90;99.90;;;;;;4908975;29;20055;-66
2021/12/11 07:40:56;;;;;;;25.10;15.50;;;-2.90;99.90;;;;;;4901774;29;20119;-65
2021/12/11 07:43:24;;;;;;;31.73;16.33;;;-2.90;99.90;;;;;;4910192;29;20054;-63
2021/12/11 07:45:51;;;;;;;26.75;15.85;;;-2.90;99.90;;;;;;4903105;29;20100;-67
2021/12/11 07:48:17;;;;;;;22.65;14.00;;;-2.50;99.90;;;;;;4895708;29;20084;-65
2021/12/11 07:50:43;;;;;;;26.10;15.05;;;-2.90;99.90;;;;;;4894078;29;20080;-66
2021/12/11 07:53:10;;;;;;;28.17;14.63;;;-2.90;99.90;;;;;;4905693;29;20056;-66
2021/12/11 07:55:36;;;;;;;26.33;16.50;;;-2.90;99.90;;;;;;4916004;29;20447;-64
2021/12/11 07:58:05;;;;;;;24.52;14.57;;;-2.90;99.90;;;;;;4905301;29;20529;-64
2021/12/11 08:00:32;;;;;;;24.13;16.05;;;-2.90;99.90;;;;;;4915964;29;20091;-65
2021/12/11 08:02:58;;;;;;;29.27;18.17;;;-2.80;99.90;;;;;;4897834;29;20439;-65
2021/12/11 08:05:27;;;;;;;28.85;17.08;;;-2.90;99.90;;;;;;4902586;29;20063;-66
2021/12/11 08:07:53;;;;;;;28.67;17.10;;;-2.80;99.90;;;;;;4916738;29;20119;-65
2021/12/11 08:10:22;;;;;;;26.70;15.43;;;-2.80;99.90;;;;;;4916477;29;20416;-65
2021/12/11 08:12:49;;;;;;;24.42;15.88;;;-2.80;99.90;;;;;;4899743;29;20165;-64
2021/12/11 08:15:16;;;;;;;25.73;15.27;;;-2.80;99.90;;;;;;4899411;29;20074;-64
2021/12/11 08:17:45;;;;;;;26.25;16.02;;;-2.80;99.90;;;;;;4908808;29;20040;-65
2021/12/11 08:20:12;;;;;;;27.58;16.08;;;-2.80;99.90;;;;;;4916443;29;20059;-65
2021/12/11 08:22:38;;;;;;;30.05;15.68;;;-2.80;99.90;;;;;;4899606;29;20060;-65
2021/12/11 08:25:05;;;;;;;25.02;14.68;;;-2.70;99.90;;;;;;4900068;29;20079;-65
2021/12/11 08:27:32;;;;;;;25.80;16.10;;;-2.70;99.90;;;;;;4919493;29;20135;-65
2021/12/11 08:29:58;;;;;;;28.60;17.77;;;-2.70;99.90;;;;;;4916095;29;20100;-66
2021/12/11 08:32:25;;;;;;;31.60;18.70;;;-2.70;99.90;;;;;;4889599;29;20048;-65
2021/12/11 08:34:52;;;;;;;28.08;17.00;;;-2.60;99.90;;;;;;4903074;29;20052;-65
2021/12/11 08:37:20;;;;;;;28.02;16.50;;;-2.60;99.90;;;;;;4902009;29;20052;-66
2021/12/11 08:39:47;;;;;;;31.25;17.63;;;-2.60;99.90;;;;;;4907822;29;20489;-67
2021/12/11 08:42:18;;;;;;;29.08;18.20;;;-2.60;99.90;;;;;;4887050;29;20047;-65
2021/12/11 08:44:57;;;;;;;28.77;15.93;;;-2.40;99.90;;;;;;4918482;29;20063;-65
2021/12/11 08:47:24;;;;;;;30.08;16.55;;;-2.50;99.90;;;;;;4885105;29;20131;-66
2021/12/11 08:49:52;;;;;;;26.75;15.93;;;-2.50;99.90;;;;;;4884240;29;20061;-66
2021/12/11 08:52:27;;;;;;;28.63;17.38;;;-2.40;99.90;;;;;;4900592;29;20093;-65
2021/12/11 08:54:54;;;;;;;29.27;17.98;;;-2.40;99.90;;;;;;4899847;29;20055;-66
2021/12/11 08:57:23;;;;;;;30.95;18.90;;;-2.30;99.90;;;;;;4900146;29;20156;-66
2021/12/11 08:59:57;;;;;;;32.72;18.80;;;-2.10;99.90;;;;;;4899517;29;20112;-65
2021/12/11 09:02:34;;;;;;;31.23;17.02;;;-2.20;99.90;;;;;;4880801;29;20113;-66
2021/12/11 09:05:12;;;;;;;34.28;19.65;;;-2.10;99.90;;;;;;4881856;29;20061;-65
2021/12/11 09:07:44;;;;;;;30.35;18.00;;;-1.70;99.90;;;;;;4899269;29;20064;-64
2021/12/11 09:10:10;;;;;;;31.67;18.27;;;-2.00;99.90;;;;;;4899789;29;20056;-65
2021/12/11 09:12:59;;;;;;;35.42;20.60;;;-2.00;99.90;;;;;;4904039;29;20508;-67
2021/12/11 09:15:36;;;;;;;30.80;19.65;;;-2.00;99.90;;;;;;4882752;29;20071;-66
2021/12/11 09:18:16;;;;;;;35.42;20.20;;;-1.90;99.90;;;;;;4900350;29;20064;-65
2021/12/11 09:20:53;;;;;;;31.95;20.10;;;-1.90;99.90;;;;;;4900089;29;20136;-65
2021/12/11 09:23:31;;;;;;;32.22;19.60;;;-1.80;99.90;;;;;;4900911;29;20065;-65
2021/12/11 09:26:04;;;;;;;40.53;22.50;;;-1.80;99.90;;;;;;4899601;29;20052;-65
2021/12/11 09:28:41;;;;;;;55.90;27.50;;;-1.70;99.90;;;;;;4883397;29;20071;-66
2021/12/11 09:31:23;;;;;;;44.80;25.15;;;-1.60;99.90;;;;;;4900740;29;20123;-65
2021/12/11 09:33:55;;;;;;;54.30;28.85;;;-1.60;99.90;;;;;;4899123;29;20064;-67
2021/12/11 09:36:34;;;;;;;42.90;26.15;;;-1.50;99.90;;;;;;4882652;29;20100;-66
2021/12/11 09:39:07;;;;;;;43.17;25.10;;;-1.50;99.90;;;;;;4882958;29;20474;-67
2021/12/11 09:41:33;;;;;;;44.38;26.50;;;-1.40;99.90;;;;;;4904017;29;20067;-66
2021/12/11 09:44:15;;;;;;;49.40;27.25;;;-1.30;99.90;;;;;;4901718;29;20084;-65
2021/12/11 09:46:46;;;;;;;42.20;24.73;;;-1.20;99.90;;;;;;4918783;29;20052;-66
2021/12/11 09:49:19;;;;;;;46.40;26.73;;;-1.20;99.90;;;;;;4891131;29;20135;-65
2021/12/11 09:51:46;;;;;;;;;;;-1.10;99.90;;;;;;4882675;29;20139;-66
2021/12/11 09:54:21;;;;;;;40.40;23.77;;;-1.00;99.90;;;;;;4898852;29;19923;-65
2021/12/11 09:56:52;;;;;;;42.05;25.63;;;-1.00;99.90;;;;;;4898326;29;20053;-65
2021/12/11 09:59:20;;;;;;;49.03;29.70;;;-0.90;99.90;;;;;;4899709;29;20478;-65
2021/12/11 10:01:50;;;;;;;53.70;30.55;;;-0.80;99.90;;;;;;4882336;29;20056;-66
2021/12/11 10:04:29;;;;;;;54.70;31.90;;;-0.70;99.90;;;;;;4897032;29;20059;-66
2021/12/11 10:09:39;;;;;;;48.45;29.08;;;-0.60;99.90;;;;;;4899129;29;20049;-66
2021/12/11 10:12:07;;;;;;;49.30;26.50;;;-0.60;99.90;;;;;;4882069;29;20044;-65
2021/12/11 10:14:43;;;;;;;53.03;29.17;;;-0.50;99.90;;;;;;4883905;29;20152;-66
2021/12/11 10:17:17;;;;;;;50.10;27.95;;;-0.40;99.90;;;;;;4879570;29;20408;-66
2021/12/11 10:19:44;;;;;;;78.57;39.05;;;-0.30;99.90;;;;;;4899374;29;20127;-67
2021/12/11 10:22:15;;;;;;;60.38;33.67;;;-0.30;99.90;;;;;;4916364;29;20044;-65
2021/12/11 10:24:41;;;;;;;69.40;36.28;;;-0.20;99.90;;;;;;4918823;29;20052;-66
2021/12/11 10:27:11;;;;;;;59.63;35.60;;;-0.10;99.90;;;;;;4900665;29;20053;-66
2021/12/11 10:29:37;;;;;;;60.75;33.58;;;0.00;99.90;;;;;;4902493;29;20037;-67
2021/12/11 10:32:12;;;;;;;63.05;33.30;;;0.10;99.90;;;;;;4899558;29;20091;-66
2021/12/11 10:34:41;;;;;;;57.58;31.52;;;0.10;99.90;;;;;;4882134;29;20573;-66
2021/12/11 10:37:21;;;;;;;64.32;34.75;;;0.20;99.90;;;;;;4912552;29;20580;-67
2021/12/11 10:39:51;;;;;;;54.58;31.10;;;0.30;99.90;;;;;;4903886;29;20051;-66
2021/12/11 10:42:17;;;;;;;62.47;35.05;;;0.30;99.90;;;;;;4898750;29;20441;-68
2021/12/11 10:44:47;;;;;;;55.50;32.42;;;0.40;99.90;;;;;;4881879;29;20052;-66
2021/12/11 10:47:30;;;;;;;55.72;32.90;;;0.50;99.90;;;;;;4874520;29;20044;-66
2021/12/11 10:49:55;;;;;;;56.33;34.17;;;0.50;99.90;;;;;;4890894;29;20044;-67
2021/12/11 10:52:26;;;;;;;59.25;33.22;;;0.60;99.90;;;;;;4900746;29;20115;-67
2021/12/11 10:54:53;;;;;;;48.30;28.30;;;0.70;99.90;;;;;;4917723;29;20048;-66
2021/12/11 10:57:20;;;;;;;55.13;30.45;;;0.70;99.90;;;;;;4900220;29;20066;-66
2021/12/11 10:59:50;;;;;;;46.47;26.52;;;0.80;99.90;;;;;;4917794;29;20071;-67
2021/12/11 11:02:24;;;;;;;46.28;27.52;;;0.90;99.90;;;;;;4906766;29;20052;-67
2021/12/11 11:04:53;;;;;;;49.72;29.35;;;0.90;99.90;;;;;;4880335;29;20076;-68
2021/12/11 11:07:21;;;;;;;47.17;29.08;;;1.00;99.90;;;;;;4862944;29;20109;-66
2021/12/11 11:09:49;;;;;;;49.28;28.58;;;1.10;99.90;;;;;;4912254;29;20064;-68
2021/12/11 11:12:18;;;;;;;52.58;29.77;;;1.20;99.90;;;;;;4898549;29;20076;-66
2021/12/11 11:14:44;;;;;;;48.60;29.23;;;1.20;99.90;;;;;;4881701;29;20416;-67
2021/12/11 11:17:16;;;;;;;48.15;26.83;;;1.30;99.90;;;;;;4881396;29;20127;-66
2021/12/11 11:19:44;;;;;;;49.10;30.30;;;1.40;99.90;;;;;;4888976;29;20048;-66
2021/12/11 11:22:15;;;;;;;51.65;29.50;;;1.40;99.90;;;;;;4916517;29;20091;-69
2021/12/11 11:24:54;;;;;;;53.25;29.25;;;1.50;99.90;;;;;;4916895;29;20063;-67
2021/12/11 11:27:19;;;;;;;47.55;29.25;;;1.60;99.90;;;;;;4896965;29;20621;-67
2021/12/11 11:29:48;;;;;;;48.63;29.25;;;;;;;;;;4881971;29;20155;-67
2021/12/11 11:32:31;;;;;;;50.42;29.45;;;1.70;99.90;;;;;;4881386;29;20061;-69
2021/12/11 11:35:12;;;;;;;53.17;30.17;;;1.70;99.90;;;;;;4899074;29;20434;-67
2021/12/11 11:37:38;;;;;;;50.22;30.67;;;1.80;99.90;;;;;;4881178;29;20489;-66
2021/12/11 11:40:07;;;;;;;49.80;28.85;;;1.80;99.90;;;;;;4896853;29;20063;-66
2021/12/11 11:42:35;;;;;;;49.25;28.45;;;1.90;99.90;;;;;;4886450;29;20064;-67
2021/12/11 11:45:01;;;;;;;47.10;29.08;;;1.90;99.90;;;;;;4886899;29;20863;-67
2021/12/11 11:47:26;;;;;;;48.67;29.08;;;2.00;99.90;;;;;;4897875;29;20052;-67
2021/12/11 11:49:58;;;;;;;49.15;29.00;;;2.00;99.90;;;;;;4898092;29;20095;-67
2021/12/11 11:52:25;;;;;;;46.93;29.27;;;2.10;99.90;;;;;;4897029;29;20064;-66
2021/12/11 11:54:55;;;;;;;46.58;27.50;;;2.20;99.90;;;;;;4876698;29;20080;-67
2021/12/11 11:57:31;;;;;;;48.72;28.73;;;2.30;99.90;;;;;;4916648;29;20044;-67
2021/12/11 11:59:59;;;;;;;62.00;34.22;;;2.30;99.90;;;;;;4914564;29;20067;-67
2021/12/11 12:02:28;;;;;;;99.57;47.65;;;2.30;99.90;;;;;;4912078;29;20048;-67
2021/12/11 12:04:56;;;;;;;61.50;33.47;;;2.40;99.90;;;;;;4867447;29;20446;-68
2021/12/11 12:07:28;;;;;;;66.55;39.80;;;2.40;99.90;;;;;;4880373;29;20095;-66
2021/12/11 12:09:58;;;;;;;54.05;32.95;;;2.50;99.90;;;;;;4881146;29;20383;-66
2021/12/11 12:12:24;;;;;;;64.18;39.83;;;2.50;99.90;;;;;;4894930;29;20393;-67
2021/12/11 12:14:52;;;;;;;60.35;35.85;;;2.60;99.90;;;;;;4897059;29;20056;-69
2021/12/11 12:17:20;;;;;;;43.75;27.00;;;2.70;99.90;;;;;;4880941;29;20099;-65
2021/12/11 12:19:48;;;;;;;56.65;36.20;;;2.70;99.90;;;;;;4895611;29;20053;-68
2021/12/11 12:22:16;;;;;;;42.45;29.92;;;2.80;99.90;;;;;;4880869;29;20516;-67
2021/12/11 12:24:44;;;;;;;45.70;27.45;;;3.00;99.90;;;;;;4880854;29;20068;-66
2021/12/11 12:27:14;;;;;;;40.22;25.65;;;3.00;99.90;;;;;;4897054;29;20111;-66
2021/12/11 12:29:42;;;;;;;41.45;25.95;;;3.10;99.90;;;;;;4896356;29;20060;-65
2021/12/11 12:32:18;;;;;;;35.38;23.23;;;3.10;99.90;;;;;;4880279;29;20048;-65
2021/12/11 12:34:44;;;;;;;40.65;25.40;;;3.10;99.90;;;;;;4896146;29;20059;-66
2021/12/11 12:37:11;;;;;;;43.67;25.58;;;3.10;99.90;;;;;;4880635;29;20108;-66
2021/12/11 12:39:41;;;;;;;43.67;27.10;;;3.00;99.90;;;;;;4896435;29;20547;-67
2021/12/11 12:42:38;;;;;;;41.30;26.35;;;3.10;99.90;;;;;;4897234;29;20056;-67
2021/12/11 12:45:31;;;;;;;41.17;25.67;;;3.20;99.90;;;;;;4881167;29;20083;-67
2021/12/11 12:48:10;;;;;;;43.97;26.15;;;3.40;99.90;;;;;;4861806;29;20099;-68
2021/12/11 12:50:47;;;;;;;34.88;23.58;;;3.60;99.90;;;;;;4861720;29;20065;-68
2021/12/11 12:53:15;;;;;;;40.80;25.63;;;3.70;99.90;;;;;;4862321;29;20064;-68
2021/12/11 12:55:53;;;;;;;36.97;25.67;;;3.90;99.90;;;;;;4878313;29;20069;-67
2021/12/11 12:58:30;;;;;;;38.35;24.05;;;4.10;99.90;;;;;;4872268;29;20434;-68
2021/12/11 13:01:04;;;;;;;35.22;22.10;;;4.10;99.90;;;;;;4897223;29;20494;-69
2021/12/11 13:03:33;;;;;;;36.10;20.95;;;4.30;99.90;;;;;;4896941;29;20061;-68
2021/12/11 13:06:05;;;;;;;33.42;20.85;;;4.40;99.90;;;;;;4880802;29;20136;-68
2021/12/11 13:08:36;;;;;;;32.22;20.15;;;4.40;99.90;;;;;;4880665;29;20052;-66